sensor_id;sensor_type;location;lat;lon;timestamp;pressure;altitude;pressure_sealevel;temperature;humidity
78014;BME280;67222;50.182;8.734;2023-02-13T05:30:30;102675.00;;;2.38;85.44
78014;BME280;67222;50.182;8.734;2023-02-13T05:32:55;102673.69;;;2.17;85.93
78014;BME280;67222;50.182;8.734;2023-02-13T05:35:21;102676.53;;;2.14;86.34
78014;BME280;67222;50.182;8.734;2023-02-13T05:37:47;102669.75;;;2.10;86.25
78014;BME280;67222;50.182;8.734;2023-02-13T05:40:13;102674.47;;;2.05;86.86
78014;BME280;67222;50.182;8.734;2023-02-13T05:42:39;102665.44;;;2.23;85.92
78014;BME280;67222;50.182;8.734;2023-02-13T05:45:06;102674.44;;;2.33;85.19
78014;BME280;67222;50.182;8.734;2023-02-13T05:47:31;102670.03;;;2.34;84.91
78014;BME280;67222;50.182;8.734;2023-02-13T05:49:57;102671.75;;;2.06;84.77
78014;BME280;67222;50.182;8.734;2023-02-13T05:52:23;102670.88;;;1.92;85.29
78014;BME280;67222;50.182;8.734;2023-02-13T05:54:48;102667.09;;;1.81;86.37
78014;BME280;67222;50.182;8.734;2023-02-13T05:57:13;102682.50;;;1.73;87.09
78014;BME280;67222;50.182;8.734;2023-02-13T05:59:38;102684.28;;;1.73;87.07
78014;BME280;67222;50.182;8.734;2023-02-13T06:02:04;102679.03;;;2.01;86.45
78014;BME280;67222;50.182;8.734;2023-02-13T06:04:29;102679.25;;;2.12;85.91
78014;BME280;67222;50.182;8.734;2023-02-13T06:06:55;102670.97;;;2.04;85.03
78014;BME280;67222;50.182;8.734;2023-02-13T06:09:20;102672.84;;;2.02;84.79
78014;BME280;67222;50.182;8.734;2023-02-13T06:11:45;102673.59;;;1.90;85.21
78014;BME280;67222;50.182;8.734;2023-02-13T06:14:11;102667.97;;;1.96;85.62
78014;BME280;67222;50.182;8.734;2023-02-13T06:16:38;102672.09;;;2.00;84.71
78014;BME280;67222;50.182;8.734;2023-02-13T06:19:03;102675.28;;;1.91;84.91
78014;BME280;67222;50.182;8.734;2023-02-13T06:21:28;102669.94;;;1.93;84.92
78014;BME280;67222;50.182;8.734;2023-02-13T06:23:54;102673.84;;;1.86;84.89
78014;BME280;67222;50.182;8.734;2023-02-13T06:26:19;102672.44;;;1.80;84.93
78014;BME280;67222;50.182;8.734;2023-02-13T06:28:44;102661.19;;;1.92;85.34
78014;BME280;67222;50.182;8.734;2023-02-13T06:31:09;102666.84;;;1.86;85.02
78014;BME280;67222;50.182;8.734;2023-02-13T06:33:35;102661.34;;;1.75;84.87
78014;BME280;67222;50.182;8.734;2023-02-13T06:36:00;102671.66;;;1.64;85.34
78014;BME280;67222;50.182;8.734;2023-02-13T06:38:25;102672.69;;;1.61;85.83
78014;BME280;67222;50.182;8.734;2023-02-13T06:40:51;102678.44;;;1.68;85.79
78014;BME280;67222;50.182;8.734;2023-02-13T06:43:16;102681.69;;;1.57;85.38
78014;BME280;67222;50.182;8.734;2023-02-13T06:45:42;102682.19;;;1.64;85.86
78014;BME280;67222;50.182;8.734;2023-02-13T06:48:07;102683.75;;;1.52;85.52
78014;BME280;67222;50.182;8.734;2023-02-13T06:50:33;102684.06;;;1.62;85.56
78014;BME280;67222;50.182;8.734;2023-02-13T06:52:59;102681.66;;;1.73;85.90
78014;BME280;67222;50.182;8.734;2023-02-13T06:55:24;102684.47;;;1.70;85.79
78014;BME280;67222;50.182;8.734;2023-02-13T06:57:50;102684.28;;;1.43;85.55
78014;BME280;67222;50.182;8.734;2023-02-13T07:00:16;102680.75;;;1.28;86.43
78014;BME280;67222;50.182;8.734;2023-02-13T07:02:43;102689.59;;;1.57;86.32
78014;BME280;67222;50.182;8.734;2023-02-13T07:05:10;102691.56;;;1.54;85.99
78014;BME280;67222;50.182;8.734;2023-02-13T07:07:36;102699.31;;;1.71;85.34
78014;BME280;67222;50.182;8.734;2023-02-13T07:10:04;102698.00;;;1.78;84.79
78014;BME280;67222;50.182;8.734;2023-02-13T07:12:32;102694.28;;;1.66;85.20
78014;BME280;67222;50.182;8.734;2023-02-13T07:14:57;102690.91;;;1.50;85.39
78014;BME280;67222;50.182;8.734;2023-02-13T07:17:23;102697.72;;;1.68;85.67
78014;BME280;67222;50.182;8.734;2023-02-13T07:19:48;102701.03;;;1.56;85.92
78014;BME280;67222;50.182;8.734;2023-02-13T07:22:13;102704.53;;;1.57;86.66
78014;BME280;67222;50.182;8.734;2023-02-13T07:24:39;102702.69;;;1.73;86.31
78014;BME280;67222;50.182;8.734;2023-02-13T07:27:04;102701.47;;;1.78;85.66
78014;BME280;67222;50.182;8.734;2023-02-13T07:29:30;102697.38;;;1.89;84.81
78014;BME280;67222;50.182;8.734;2023-02-13T07:31:55;102694.38;;;1.95;84.28
78014;BME280;67222;50.182;8.734;2023-02-13T07:34:20;102690.50;;;2.00;84.39
78014;BME280;67222;50.182;8.734;2023-02-13T07:36:46;102695.69;;;2.02;85.25
78014;BME280;67222;50.182;8.734;2023-02-13T07:39:11;102687.44;;;2.08;84.74
78014;BME280;67222;50.182;8.734;2023-02-13T07:41:36;102695.69;;;2.02;84.86
78014;BME280;67222;50.182;8.734;2023-02-13T07:44:02;102695.13;;;2.11;84.41
78014;BME280;67222;50.182;8.734;2023-02-13T07:46:27;102692.50;;;2.11;85.97
78014;BME280;67222;50.182;8.734;2023-02-13T07:48:52;102700.66;;;2.21;84.31
78014;BME280;67222;50.182;8.734;2023-02-13T07:51:18;102702.47;;;2.20;85.02
78014;BME280;67222;50.182;8.734;2023-02-13T07:53:43;102705.00;;;2.22;86.16
78014;BME280;67222;50.182;8.734;2023-02-13T07:56:09;102708.75;;;2.03;87.07
78014;BME280;67222;50.182;8.734;2023-02-13T07:58:36;102705.84;;;2.08;87.73
78014;BME280;67222;50.182;8.734;2023-02-13T08:01:06;102702.94;;;2.27;88.25
78014;BME280;67222;50.182;8.734;2023-02-13T08:03:31;102695.72;;;2.45;86.33
78014;BME280;67222;50.182;8.734;2023-02-13T08:05:56;102700.28;;;2.55;86.44
78014;BME280;67222;50.182;8.734;2023-02-13T08:08:22;102703.84;;;2.68;86.05
78014;BME280;67222;50.182;8.734;2023-02-13T08:10:47;102703.56;;;2.73;85.52
78014;BME280;67222;50.182;8.734;2023-02-13T08:13:31;102705.81;;;2.79;86.36
78014;BME280;67222;50.182;8.734;2023-02-13T08:15:56;102714.81;;;2.89;86.50
78014;BME280;67222;50.182;8.734;2023-02-13T08:18:21;102701.66;;;2.89;86.53
78014;BME280;67222;50.182;8.734;2023-02-13T08:20:47;102702.94;;;2.96;86.44
78014;BME280;67222;50.182;8.734;2023-02-13T08:23:12;102713.75;;;3.06;87.19
78014;BME280;67222;50.182;8.734;2023-02-13T08:25:37;102710.59;;;3.14;86.91
78014;BME280;67222;50.182;8.734;2023-02-13T08:28:03;102713.41;;;3.25;86.90
78014;BME280;67222;50.182;8.734;2023-02-13T08:30:29;102710.88;;;3.23;87.13
78014;BME280;67222;50.182;8.734;2023-02-13T08:32:54;102714.16;;;3.27;87.11
78014;BME280;67222;50.182;8.734;2023-02-13T08:35:20;102717.31;;;3.32;87.37
78014;BME280;67222;50.182;8.734;2023-02-13T08:37:46;102716.78;;;3.54;85.99
78014;BME280;67222;50.182;8.734;2023-02-13T08:40:12;102719.41;;;3.54;86.62
78014;BME280;67222;50.182;8.734;2023-02-13T08:42:37;102711.72;;;3.63;86.07
78014;BME280;67222;50.182;8.734;2023-02-13T08:45:03;102714.88;;;3.69;86.52
78014;BME280;67222;50.182;8.734;2023-02-13T08:47:30;102720.09;;;3.83;86.18
78014;BME280;67222;50.182;8.734;2023-02-13T08:49:55;102717.03;;;3.89;86.09
78014;BME280;67222;50.182;8.734;2023-02-13T08:52:21;102719.91;;;3.99;85.38
78014;BME280;67222;50.182;8.734;2023-02-13T08:54:46;102711.44;;;4.06;85.11
78014;BME280;67222;50.182;8.734;2023-02-13T08:57:11;102716.63;;;4.20;85.22
78014;BME280;67222;50.182;8.734;2023-02-13T08:59:37;102720.22;;;4.19;85.16
78014;BME280;67222;50.182;8.734;2023-02-13T09:02:02;102721.81;;;4.22;85.42
78014;BME280;67222;50.182;8.734;2023-02-13T09:04:27;102719.91;;;4.24;85.16
78014;BME280;67222;50.182;8.734;2023-02-13T09:06:53;102718.09;;;4.37;84.68
78014;BME280;67222;50.182;8.734;2023-02-13T09:09:18;102718.84;;;4.52;84.18
78014;BME280;67222;50.182;8.734;2023-02-13T09:11:43;102717.16;;;4.51;84.70
78014;BME280;67222;50.182;8.734;2023-02-13T09:14:09;102714.47;;;4.64;84.56
78014;BME280;67222;50.182;8.734;2023-02-13T09:16:34;102714.09;;;4.81;83.68
78014;BME280;67222;50.182;8.734;2023-02-13T09:19:01;102714.75;;;4.84;84.01
78014;BME280;67222;50.182;8.734;2023-02-13T09:21:26;102722.50;;;4.99;83.82
78014;BME280;67222;50.182;8.734;2023-02-13T09:23:51;102711.91;;;5.11;83.15
78014;BME280;67222;50.182;8.734;2023-02-13T09:26:19;102704.03;;;5.23;83.41
78014;BME280;67222;50.182;8.734;2023-02-13T09:28:44;102708.41;;;5.35;81.83
78014;BME280;67222;50.182;8.734;2023-02-13T09:31:11;102701.84;;;5.40;82.48
78014;BME280;67222;50.182;8.734;2023-02-13T09:33:37;102702.81;;;5.51;81.04
78014;BME280;67222;50.182;8.734;2023-02-13T09:36:06;102704.03;;;5.58;81.57
78014;BME280;67222;50.182;8.734;2023-02-13T09:38:33;102705.28;;;5.76;81.46
78014;BME280;67222;50.182;8.734;2023-02-13T09:41:04;102702.56;;;5.89;79.93
78014;BME280;67222;50.182;8.734;2023-02-13T09:43:35;102700.72;;;6.02;80.47
78014;BME280;67222;50.182;8.734;2023-02-13T09:46:54;102691.44;;;6.07;79.82
78014;BME280;67222;50.182;8.734;2023-02-13T09:48:56;102700.00;;;6.11;78.74
78014;BME280;67222;50.182;8.734;2023-02-13T09:51:24;102694.13;;;6.19;78.86
78014;BME280;67222;50.182;8.734;2023-02-13T09:53:59;102701.00;;;6.32;78.10
78014;BME280;67222;50.182;8.734;2023-02-13T10:01:47;102703.00;;;6.62;77.61
78014;BME280;67222;50.182;8.734;2023-02-13T10:04:24;102700.34;;;6.74;77.31
78014;BME280;67222;50.182;8.734;2023-02-13T10:07:09;102696.69;;;6.86;77.37
78014;BME280;67222;50.182;8.734;2023-02-13T10:09:55;102692.09;;;6.99;75.02
78014;BME280;67222;50.182;8.734;2023-02-13T10:12:36;102697.88;;;7.04;73.93
78014;BME280;67222;50.182;8.734;2023-02-13T10:18:15;102700.69;;;7.23;74.34
78014;BME280;67222;50.182;8.734;2023-02-13T10:20:44;102704.75;;;7.39;74.54
78014;BME280;67222;50.182;8.734;2023-02-13T10:26:14;102708.50;;;7.68;72.54
78014;BME280;67222;50.182;8.734;2023-02-13T10:28:44;102711.19;;;7.78;73.08
78014;BME280;67222;50.182;8.734;2023-02-13T10:31:18;102703.03;;;7.90;71.16
78014;BME280;67222;50.182;8.734;2023-02-13T10:33:49;102707.19;;;8.04;71.77
78014;BME280;67222;50.182;8.734;2023-02-13T10:36:21;102696.72;;;8.12;72.76
78014;BME280;67222;50.182;8.734;2023-02-13T10:38:56;102692.06;;;8.26;71.11
78014;BME280;67222;50.182;8.734;2023-02-13T10:41:35;102686.19;;;8.32;69.57
78014;BME280;67222;50.182;8.734;2023-02-13T11:00:17;102669.66;;;9.18;66.73
78014;BME280;67222;50.182;8.734;2023-02-13T11:02:46;102666.56;;;9.23;65.90
78014;BME280;67222;50.182;8.734;2023-02-13T11:05:24;102661.66;;;9.37;65.07
78014;BME280;67222;50.182;8.734;2023-02-13T11:07:50;102663.47;;;9.47;65.37
78014;BME280;67222;50.182;8.734;2023-02-13T11:10:23;102661.91;;;9.63;64.72
78014;BME280;67222;50.182;8.734;2023-02-13T11:12:49;102658.66;;;9.79;64.92
78014;BME280;67222;50.182;8.734;2023-02-13T11:15:30;102645.88;;;9.92;64.44
78014;BME280;67222;50.182;8.734;2023-02-13T11:17:59;102644.56;;;10.06;64.10
78014;BME280;67222;50.182;8.734;2023-02-13T11:20:36;102642.38;;;10.19;63.77
78014;BME280;67222;50.182;8.734;2023-02-13T11:26:02;102639.63;;;10.48;63.25
78014;BME280;67222;50.182;8.734;2023-02-13T11:28:30;102635.63;;;10.62;62.65
78014;BME280;67222;50.182;8.734;2023-02-13T11:33:37;102623.16;;;10.80;61.55
78014;BME280;67222;50.182;8.734;2023-02-13T11:36:05;102619.94;;;10.95;61.05
78014;BME280;67222;50.182;8.734;2023-02-13T11:38:31;102613.38;;;11.07;60.27
78014;BME280;67222;50.182;8.734;2023-02-13T11:43:42;102610.22;;;11.29;59.56
78014;BME280;67222;50.182;8.734;2023-02-13T11:46:22;102614.03;;;11.44;59.54
78014;BME280;67222;50.182;8.734;2023-02-13T11:49:03;102607.75;;;11.53;59.14
78014;BME280;67222;50.182;8.734;2023-02-13T11:51:44;102609.00;;;11.67;57.96
78014;BME280;67222;50.182;8.734;2023-02-13T11:56:52;102600.03;;;12.02;56.42
78014;BME280;67222;50.182;8.734;2023-02-13T11:59:21;102605.63;;;12.17;58.11
78014;BME280;67222;50.182;8.734;2023-02-13T12:02:00;102598.66;;;12.32;56.91
78014;BME280;67222;50.182;8.734;2023-02-13T12:04:26;102603.91;;;12.50;56.75
78014;BME280;67222;50.182;8.734;2023-02-13T12:07:00;102599.09;;;12.70;56.37
78014;BME280;67222;50.182;8.734;2023-02-13T12:09:28;102600.47;;;12.90;54.78
78014;BME280;67222;50.182;8.734;2023-02-13T12:11:57;102599.63;;;12.90;54.38
78014;BME280;67222;50.182;8.734;2023-02-13T12:14:31;102601.31;;;12.99;54.60
78014;BME280;67222;50.182;8.734;2023-02-13T12:17:06;102603.31;;;13.13;53.65
78014;BME280;67222;50.182;8.734;2023-02-13T12:19:40;102596.66;;;13.33;51.78
78014;BME280;67222;50.182;8.734;2023-02-13T12:22:19;102601.00;;;13.51;52.16
78014;BME280;67222;50.182;8.734;2023-02-13T12:25:13;102600.63;;;13.78;52.16
78014;BME280;67222;50.182;8.734;2023-02-13T12:30:45;102587.66;;;14.29;50.31
78014;BME280;67222;50.182;8.734;2023-02-13T12:33:20;102581.59;;;14.43;49.83
78014;BME280;67222;50.182;8.734;2023-02-13T12:36:06;102582.78;;;14.72;48.93
78014;BME280;67222;50.182;8.734;2023-02-13T12:38:43;102573.53;;;14.97;47.68
78014;BME280;67222;50.182;8.734;2023-02-13T12:41:52;102565.22;;;15.07;46.83
78014;BME280;67222;50.182;8.734;2023-02-13T12:55:15;102546.41;;;15.59;43.00
78014;BME280;67222;50.182;8.734;2023-02-13T13:00:41;102549.09;;;15.59;42.75
78014;BME280;67222;50.182;8.734;2023-02-13T13:06:20;102541.69;;;15.76;43.87
78014;BME280;67222;50.182;8.734;2023-02-13T13:11:59;102541.41;;;15.71;42.59
78014;BME280;67222;50.182;8.734;2023-02-13T13:14:49;102537.81;;;15.64;41.91
78014;BME280;67222;50.182;8.734;2023-02-13T13:19:59;102539.56;;;15.71;42.41
78014;BME280;67222;50.182;8.734;2023-02-13T13:22:40;102532.63;;;15.62;41.68
78014;BME280;67222;50.182;8.734;2023-02-13T13:25:12;102534.47;;;15.24;42.36
78014;BME280;67222;50.182;8.734;2023-02-13T13:27:44;102533.19;;;15.35;42.56
78014;BME280;67222;50.182;8.734;2023-02-13T13:30:28;102541.53;;;15.40;43.14
78014;BME280;67222;50.182;8.734;2023-02-13T13:32:59;102533.22;;;15.50;42.07
78014;BME280;67222;50.182;8.734;2023-02-13T13:35:26;102530.16;;;15.53;41.32
78014;BME280;67222;50.182;8.734;2023-02-13T13:38:12;102515.84;;;15.23;41.71
78014;BME280;67222;50.182;8.734;2023-02-13T13:50:45;102515.19;;;14.06;43.69
78014;BME280;67222;50.182;8.734;2023-02-13T13:53:14;102524.88;;;13.68;45.56
78014;BME280;67222;50.182;8.734;2023-02-13T13:58:33;102517.91;;;13.59;46.55
78014;BME280;67222;50.182;8.734;2023-02-13T14:01:16;102517.38;;;13.63;47.62
78014;BME280;67222;50.182;8.734;2023-02-13T14:03:46;102506.44;;;13.01;46.71
78014;BME280;67222;50.182;8.734;2023-02-13T14:06:14;102512.94;;;12.83;47.88
78014;BME280;67222;50.182;8.734;2023-02-13T14:11:33;102507.25;;;13.02;48.33
78014;BME280;67222;50.182;8.734;2023-02-13T14:13:59;102512.09;;;12.98;48.67
78014;BME280;67222;50.182;8.734;2023-02-13T14:16:43;102507.41;;;12.92;48.83
78014;BME280;67222;50.182;8.734;2023-02-13T14:27:23;102498.50;;;12.35;52.31
78014;BME280;67222;50.182;8.734;2023-02-13T14:29:49;102501.16;;;12.27;51.16
78014;BME280;67222;50.182;8.734;2023-02-13T14:32:43;102500.94;;;12.04;53.64
78014;BME280;67222;50.182;8.734;2023-02-13T14:35:15;102498.25;;;11.96;53.18
78014;BME280;67222;50.182;8.734;2023-02-13T14:37:50;102489.22;;;11.97;53.33
78014;BME280;67222;50.182;8.734;2023-02-13T14:42:46;102491.00;;;11.80;54.42
78014;BME280;67222;50.182;8.734;2023-02-13T14:45:19;102489.31;;;11.79;52.87
78014;BME280;67222;50.182;8.734;2023-02-13T14:47:48;102492.91;;;11.70;54.23
78014;BME280;67222;50.182;8.734;2023-02-13T14:50:31;102489.91;;;11.65;55.37
78014;BME280;67222;50.182;8.734;2023-02-13T14:53:04;102483.00;;;11.54;54.91
78014;BME280;67222;50.182;8.734;2023-02-13T14:58:06;102484.34;;;11.24;57.33
78014;BME280;67222;50.182;8.734;2023-02-13T15:00:40;102478.00;;;11.25;57.94
78014;BME280;67222;50.182;8.734;2023-02-13T15:05:50;102480.75;;;11.15;56.85
78014;BME280;67222;50.182;8.734;2023-02-13T15:08:20;102479.56;;;11.10;57.78
78014;BME280;67222;50.182;8.734;2023-02-13T15:10:52;102468.41;;;11.14;57.60
78014;BME280;67222;50.182;8.734;2023-02-13T15:15:57;102478.53;;;11.03;58.04
78014;BME280;67222;50.182;8.734;2023-02-13T15:18:27;102479.53;;;11.02;58.96
78014;BME280;67222;50.182;8.734;2023-02-13T15:20:55;102467.94;;;10.93;58.38
78014;BME280;67222;50.182;8.734;2023-02-13T15:23:30;102464.00;;;10.79;60.12
78014;BME280;67222;50.182;8.734;2023-02-13T15:25:58;102466.16;;;10.58;59.18
78014;BME280;67222;50.182;8.734;2023-02-13T15:28:25;102468.06;;;10.66;59.50
78014;BME280;67222;50.182;8.734;2023-02-13T15:31:01;102469.06;;;10.47;59.29
78014;BME280;67222;50.182;8.734;2023-02-13T15:33:32;102468.53;;;10.25;62.47
78014;BME280;67222;50.182;8.734;2023-02-13T15:36:00;102465.19;;;10.23;61.75
78014;BME280;67222;50.182;8.734;2023-02-13T15:38:30;102475.22;;;10.29;59.76
78014;BME280;67222;50.182;8.734;2023-02-13T15:41:01;102468.19;;;10.11;61.50
78014;BME280;67222;50.182;8.734;2023-02-13T15:43:34;102458.03;;;9.96;62.00
78014;BME280;67222;50.182;8.734;2023-02-13T15:46:23;102461.69;;;10.13;60.44
78014;BME280;67222;50.182;8.734;2023-02-13T15:48:51;102457.13;;;10.06;59.67
78014;BME280;67222;50.182;8.734;2023-02-13T15:51:18;102456.22;;;10.15;59.86
78014;BME280;67222;50.182;8.734;2023-02-13T15:53:52;102460.09;;;10.20;58.50
78014;BME280;67222;50.182;8.734;2023-02-13T15:56:18;102456.38;;;10.13;59.02
78014;BME280;67222;50.182;8.734;2023-02-13T15:58:43;102459.25;;;10.02;59.08
78014;BME280;67222;50.182;8.734;2023-02-13T16:01:10;102464.00;;;9.81;62.62
78014;BME280;67222;50.182;8.734;2023-02-13T16:03:36;102469.81;;;9.66;63.21
78014;BME280;67222;50.182;8.734;2023-02-13T16:06:05;102470.13;;;9.63;61.05
78014;BME280;67222;50.182;8.734;2023-02-13T16:08:35;102472.63;;;9.37;63.27
78014;BME280;67222;50.182;8.734;2023-02-13T16:13:59;102471.25;;;9.24;63.70
78014;BME280;67222;50.182;8.734;2023-02-13T16:16:27;102484.06;;;9.01;62.21
78014;BME280;67222;50.182;8.734;2023-02-13T16:18:53;102474.50;;;9.18;61.93
78014;BME280;67222;50.182;8.734;2023-02-13T16:21:26;102478.25;;;9.25;60.75
78014;BME280;67222;50.182;8.734;2023-02-13T16:24:02;102470.41;;;9.33;61.17
78014;BME280;67222;50.182;8.734;2023-02-13T16:26:28;102470.84;;;9.19;63.11
78014;BME280;67222;50.182;8.734;2023-02-13T16:28:55;102483.66;;;8.96;64.01
78014;BME280;67222;50.182;8.734;2023-02-13T16:31:21;102480.44;;;8.83;64.64
78014;BME280;67222;50.182;8.734;2023-02-13T16:33:47;102479.59;;;8.72;63.93
78014;BME280;67222;50.182;8.734;2023-02-13T16:38:46;102486.31;;;8.67;63.66
78014;BME280;67222;50.182;8.734;2023-02-13T16:43:51;102493.47;;;8.57;63.42
78014;BME280;67222;50.182;8.734;2023-02-13T16:49:00;102490.53;;;8.50;65.56
78014;BME280;67222;50.182;8.734;2023-02-13T16:53:58;102500.41;;;8.19;64.96
78014;BME280;67222;50.182;8.734;2023-02-13T16:56:24;102506.81;;;8.07;65.53
78014;BME280;67222;50.182;8.734;2023-02-13T17:01:41;102509.28;;;7.89;66.02
78014;BME280;67222;50.182;8.734;2023-02-13T17:04:24;102510.75;;;7.72;66.48
78014;BME280;67222;50.182;8.734;2023-02-13T17:06:56;102510.72;;;7.63;65.77
78014;BME280;67222;50.182;8.734;2023-02-13T17:09:21;102519.06;;;7.58;66.62
78014;BME280;67222;50.182;8.734;2023-02-13T17:11:51;102517.91;;;7.51;67.42
78014;BME280;67222;50.182;8.734;2023-02-13T17:14:17;102522.78;;;7.46;68.00
78014;BME280;67222;50.182;8.734;2023-02-13T17:16:43;102522.41;;;7.29;67.19
78014;BME280;67222;50.182;8.734;2023-02-13T17:19:09;102517.16;;;7.18;67.64
78014;BME280;67222;50.182;8.734;2023-02-13T17:21:34;102527.03;;;7.07;68.86
78014;BME280;67222;50.182;8.734;2023-02-13T17:24:01;102532.25;;;6.97;68.40
78014;BME280;67222;50.182;8.734;2023-02-13T17:26:26;102526.09;;;6.96;70.30
78014;BME280;67222;50.182;8.734;2023-02-13T17:28:51;102526.84;;;6.87;70.04
78014;BME280;67222;50.182;8.734;2023-02-13T17:31:16;102530.41;;;6.77;70.24
78014;BME280;67222;50.182;8.734;2023-02-13T17:33:42;102523.44;;;6.76;70.22
78014;BME280;67222;50.182;8.734;2023-02-13T17:36:12;102526.38;;;6.61;70.29
78014;BME280;67222;50.182;8.734;2023-02-13T17:38:37;102531.34;;;6.55;70.89
78014;BME280;67222;50.182;8.734;2023-02-13T17:41:04;102532.19;;;6.55;70.67
78014;BME280;67222;50.182;8.734;2023-02-13T17:43:29;102528.72;;;6.44;70.34
78014;BME280;67222;50.182;8.734;2023-02-13T17:45:55;102540.41;;;6.41;71.10
78014;BME280;67222;50.182;8.734;2023-02-13T17:48:20;102537.31;;;6.36;71.52
78014;BME280;67222;50.182;8.734;2023-02-13T17:50:47;102537.56;;;6.33;71.12
78014;BME280;67222;50.182;8.734;2023-02-13T17:53:31;102537.31;;;6.25;71.05
78014;BME280;67222;50.182;8.734;2023-02-13T17:55:57;102534.06;;;6.21;71.16
78014;BME280;67222;50.182;8.734;2023-02-13T17:58:22;102534.72;;;6.14;71.13
78014;BME280;67222;50.182;8.734;2023-02-13T18:00:48;102544.69;;;6.10;71.24
78014;BME280;67222;50.182;8.734;2023-02-13T18:03:14;102538.91;;;6.05;72.14
78014;BME280;67222;50.182;8.734;2023-02-13T18:05:40;102544.00;;;5.97;71.50
78014;BME280;67222;50.182;8.734;2023-02-13T18:08:06;102537.09;;;5.94;71.25
78014;BME280;67222;50.182;8.734;2023-02-13T18:10:34;102543.38;;;5.93;72.37
78014;BME280;67222;50.182;8.734;2023-02-13T18:13:01;102537.09;;;5.94;72.15
78014;BME280;67222;50.182;8.734;2023-02-13T18:15:31;102543.25;;;6.17;71.15
78014;BME280;67222;50.182;8.734;2023-02-13T18:17:57;102544.94;;;6.18;70.87
78014;BME280;67222;50.182;8.734;2023-02-13T18:20:23;102543.00;;;6.20;71.57
78014;BME280;67222;50.182;8.734;2023-02-13T18:22:48;102548.16;;;6.11;71.15
78014;BME280;67222;50.182;8.734;2023-02-13T18:25:18;102551.91;;;6.08;71.83
78014;BME280;67222;50.182;8.734;2023-02-13T18:27:44;102544.84;;;5.97;72.32
78014;BME280;67222;50.182;8.734;2023-02-13T18:30:11;102547.69;;;5.94;72.68
78014;BME280;67222;50.182;8.734;2023-02-13T18:32:37;102544.56;;;5.89;72.25
78014;BME280;67222;50.182;8.734;2023-02-13T18:35:03;102542.66;;;5.91;73.41
78014;BME280;67222;50.182;8.734;2023-02-13T18:37:29;102546.47;;;5.65;72.41
78014;BME280;67222;50.182;8.734;2023-02-13T18:39:55;102543.13;;;5.63;73.93
78014;BME280;67222;50.182;8.734;2023-02-13T18:42:21;102543.00;;;5.64;73.14
78014;BME280;67222;50.182;8.734;2023-02-13T18:44:46;102540.84;;;5.58;73.60
78014;BME280;67222;50.182;8.734;2023-02-13T18:47:12;102539.97;;;5.58;73.81
78014;BME280;67222;50.182;8.734;2023-02-13T18:49:38;102546.34;;;5.44;73.47
78014;BME280;67222;50.182;8.734;2023-02-13T18:52:04;102545.97;;;5.48;73.46
78014;BME280;67222;50.182;8.734;2023-02-13T18:54:30;102547.88;;;5.35;74.08
78014;BME280;67222;50.182;8.734;2023-02-13T18:56:55;102558.44;;;5.24;73.38
78014;BME280;67222;50.182;8.734;2023-02-13T18:59:20;102558.16;;;5.16;74.86
78014;BME280;67222;50.182;8.734;2023-02-13T19:01:47;102559.47;;;5.10;75.27
78014;BME280;67222;50.182;8.734;2023-02-13T19:04:14;102551.81;;;5.18;74.97
78014;BME280;67222;50.182;8.734;2023-02-13T19:06:41;102559.59;;;5.09;74.71
78014;BME280;67222;50.182;8.734;2023-02-13T19:09:07;102549.72;;;5.00;74.51
78014;BME280;67222;50.182;8.734;2023-02-13T19:11:33;102546.34;;;4.98;74.82
78014;BME280;67222;50.182;8.734;2023-02-13T19:14:00;102545.13;;;4.91;75.39
78014;BME280;67222;50.182;8.734;2023-02-13T19:16:28;102547.28;;;4.85;75.63
78014;BME280;67222;50.182;8.734;2023-02-13T19:18:55;102544.91;;;4.70;76.36
78014;BME280;67222;50.182;8.734;2023-02-13T19:21:24;102547.69;;;4.68;76.05
78014;BME280;67222;50.182;8.734;2023-02-13T19:23:51;102545.53;;;4.73;76.02
78014;BME280;67222;50.182;8.734;2023-02-13T19:26:24;102550.94;;;4.72;76.67
78014;BME280;67222;50.182;8.734;2023-02-13T19:28:55;102549.13;;;4.72;76.20
78014;BME280;67222;50.182;8.734;2023-02-13T19:31:25;102554.66;;;4.69;76.73
78014;BME280;67222;50.182;8.734;2023-02-13T19:33:51;102551.47;;;4.64;76.63
78014;BME280;67222;50.182;8.734;2023-02-13T19:36:20;102553.78;;;4.45;76.34
78014;BME280;67222;50.182;8.734;2023-02-13T19:38:46;102556.19;;;4.24;77.35
78014;BME280;67222;50.182;8.734;2023-02-13T19:41:14;102553.66;;;4.22;77.94
78014;BME280;67222;50.182;8.734;2023-02-13T19:43:40;102558.59;;;4.27;78.14
78014;BME280;67222;50.182;8.734;2023-02-13T19:46:08;102558.06;;;4.35;78.02
78014;BME280;67222;50.182;8.734;2023-02-13T19:48:37;102556.53;;;4.43;76.37
78014;BME280;67222;50.182;8.734;2023-02-13T19:51:09;102556.25;;;4.35;76.70
78014;BME280;67222;50.182;8.734;2023-02-13T19:53:35;102556.41;;;4.21;76.76
78014;BME280;67222;50.182;8.734;2023-02-13T19:56:01;102561.34;;;4.25;76.87
78014;BME280;67222;50.182;8.734;2023-02-13T19:58:28;102551.34;;;4.18;77.11
78014;BME280;67222;50.182;8.734;2023-02-13T20:00:53;102552.41;;;4.15;77.31
78014;BME280;67222;50.182;8.734;2023-02-13T20:03:19;102551.16;;;4.08;77.00
78014;BME280;67222;50.182;8.734;2023-02-13T20:05:45;102550.84;;;4.00;76.90
78014;BME280;67222;50.182;8.734;2023-02-13T20:08:11;102550.97;;;3.86;77.90
78014;BME280;67222;50.182;8.734;2023-02-13T20:10:36;102551.19;;;3.95;77.95
78014;BME280;67222;50.182;8.734;2023-02-13T20:13:02;102552.44;;;3.90;78.11
78014;BME280;67222;50.182;8.734;2023-02-13T20:15:29;102552.16;;;3.94;76.53
78014;BME280;67222;50.182;8.734;2023-02-13T20:17:55;102547.72;;;3.70;77.88
78014;BME280;67222;50.182;8.734;2023-02-13T20:20:20;102554.78;;;3.82;77.46
78014;BME280;67222;50.182;8.734;2023-02-13T20:22:46;102565.34;;;3.69;77.78
78014;BME280;67222;50.182;8.734;2023-02-13T20:25:13;102555.53;;;3.71;77.61
78014;BME280;67222;50.182;8.734;2023-02-13T20:27:38;102559.66;;;3.75;77.35
78014;BME280;67222;50.182;8.734;2023-02-13T20:30:07;102562.19;;;3.64;77.54